Time;durP1;ratioP1;P1;durP2;ratioP2;P2;SDS_P1;SDS_P2;PMS_P1;PMS_P2;Temp;Humidity;BMP_temperature;BMP_pressure;BME280_temperature;BME280_humidity;BME280_pressure;Samples;Min_cycle;Max_cycle;Signal;HPM_P1;HPM_P2
2023/06/05 00:01:13;;;;;;;179.30;171.70;;;9.40;99.90;;;;;;5088230;28;20047;-76
2023/06/05 00:03:39;;;;;;;183.40;175.88;;;9.50;99.90;;;;;;5073703;28;20488;-76
2023/06/05 00:06:06;;;;;;;182.55;174.73;;;9.50;99.90;;;;;;5071257;28;20043;-77
2023/06/05 00:08:32;;;;;;;176.48;169.02;;;9.50;99.90;;;;;;5084966;28;20047;-76
2023/06/05 00:10:57;;;;;;;180.88;173.25;;;9.50;99.90;;;;;;5073322;28;20047;-76
2023/06/05 00:13:23;;;;;;;177.98;170.48;;;9.50;99.90;;;;;;5067415;28;20438;-76
2023/06/05 00:15:50;;;;;;;172.70;165.23;;;9.60;99.90;;;;;;5088663;28;20155;-76
2023/06/05 00:18:17;;;;;;;168.38;161.07;;;9.60;99.90;;;;;;5070005;28;20193;-76
2023/06/05 00:20:43;;;;;;;177.25;169.80;;;9.60;99.90;;;;;;5064424;28;20044;-76
2023/06/05 00:23:11;;;;;;;179.00;171.43;;;9.70;99.90;;;;;;5070209;28;20040;-77
2023/06/05 00:25:36;;;;;;;175.73;168.27;;;9.70;99.90;;;;;;5072736;28;20088;-77
2023/06/05 00:28:02;;;;;;;176.57;169.27;;;9.70;99.90;;;;;;5088461;28;20043;-77
2023/06/05 00:30:28;;;;;;;167.50;160.30;;;9.70;99.90;;;;;;5088510;27;20197;-76
2023/06/05 00:32:53;;;;;;;163.77;156.73;;;9.80;99.90;;;;;;5095586;28;20047;-76
2023/06/05 00:35:20;;;;;;;160.45;153.70;;;9.70;99.90;;;;;;5085561;28;20036;-76
2023/06/05 00:37:46;;;;;;;162.75;155.63;;;9.70;99.90;;;;;;5072486;28;20127;-76
2023/06/05 00:40:12;;;;;;;164.05;157.05;;;9.80;99.90;;;;;;5090354;28;20122;-76
2023/06/05 00:42:38;;;;;;;162.65;155.82;;;9.80;99.90;;;;;;5087014;28;20042;-77
2023/06/05 00:45:04;;;;;;;159.80;153.00;;;9.90;99.90;;;;;;5089260;28;20043;-76
2023/06/05 00:47:31;;;;;;;152.50;145.98;;;9.90;99.90;;;;;;5068649;28;20035;-76
2023/06/05 00:49:58;;;;;;;152.57;145.88;;;9.90;99.90;;;;;;5090054;28;20043;-76
2023/06/05 00:52:24;;;;;;;155.15;148.75;;;9.90;99.90;;;;;;5084952;28;20554;-76
2023/06/05 00:54:50;;;;;;;155.50;148.85;;;10.00;99.90;;;;;;5065298;28;20438;-76
2023/06/05 00:57:16;;;;;;;143.68;137.52;;;10.00;99.90;;;;;;5086391;28;20078;-76
2023/06/05 00:59:44;;;;;;;137.18;131.40;;;10.10;99.90;;;;;;5071494;28;20387;-76
2023/06/05 01:02:12;;;;;;;139.90;134.00;;;10.20;99.90;;;;;;5072574;28;20040;-76
2023/06/05 01:04:43;;;;;;;136.50;130.75;;;10.20;99.90;;;;;;5071423;28;20043;-76
2023/06/05 01:07:10;;;;;;;132.13;126.60;;;10.20;99.90;;;;;;5086686;28;20040;-77
2023/06/05 01:09:37;;;;;;;132.43;126.95;;;10.20;99.90;;;;;;5085685;28;20064;-76
2023/06/05 01:12:26;;;;;;;129.32;123.82;;;10.30;99.90;;;;;;5067516;28;20407;-76
2023/06/05 01:14:58;;;;;;;119.13;114.18;;;10.30;99.90;;;;;;5091014;28;20059;-76
2023/06/05 01:17:28;;;;;;;120.68;115.47;;;10.30;99.90;;;;;;5073976;28;20046;-76
2023/06/05 01:19:55;;;;;;;124.93;119.68;;;10.30;99.90;;;;;;5086548;28;20058;-76
2023/06/05 01:22:21;;;;;;;118.50;113.47;;;10.30;99.90;;;;;;5088588;28;20101;-76
2023/06/05 01:24:47;;;;;;;112.85;108.20;;;10.40;99.90;;;;;;5089028;28;20457;-76
2023/06/05 01:27:26;;;;;;;111.60;106.50;;;10.30;99.90;;;;;;5079938;28;20508;-76
2023/06/05 01:30:01;;;;;;;102.22;97.85;;;10.40;99.90;;;;;;5071460;28;20503;-76
2023/06/05 01:32:40;;;;;;;102.82;98.40;;;10.30;99.90;;;;;;5076220;28;20195;-76
2023/06/05 01:35:08;;;;;;;99.63;95.35;;;10.30;99.90;;;;;;5082228;28;20121;-76
2023/06/05 01:37:40;;;;;;;100.00;95.78;;;10.30;99.90;;;;;;5089019;28;20043;-77
2023/06/05 01:40:10;;;;;;;99.45;95.25;;;10.30;99.90;;;;;;5090275;28;20138;-76
2023/06/05 01:42:38;;;;;;;101.18;96.88;;;10.30;99.90;;;;;;5093329;28;20043;-76
2023/06/05 01:45:06;;;;;;;101.18;96.80;;;10.30;99.90;;;;;;5091463;28;20071;-76
2023/06/05 01:47:32;;;;;;;98.60;94.38;;;10.30;99.90;;;;;;5073071;28;20043;-76
2023/06/05 01:49:58;;;;;;;104.50;99.90;;;10.30;99.90;;;;;;5094567;28;20055;-76
2023/06/05 01:52:23;;;;;;;108.40;103.57;;;10.30;99.90;;;;;;5075325;28;20039;-76
2023/06/05 01:54:49;;;;;;;105.35;100.70;;;10.30;99.90;;;;;;5092769;28;20039;-76
2023/06/05 01:57:15;;;;;;;103.15;98.72;;;10.30;99.90;;;;;;5094553;28;20032;-77
2023/06/05 01:59:43;;;;;;;103.28;98.68;;;10.30;99.90;;;;;;5089501;28;20120;-76
2023/06/05 02:02:09;;;;;;;102.72;98.22;;;10.30;99.90;;;;;;5091575;28;20040;-76
2023/06/05 02:04:34;;;;;;;99.82;95.45;;;10.20;99.90;;;;;;5090417;28;20510;-76
2023/06/05 02:07:03;;;;;;;99.38;94.93;;;10.20;99.90;;;;;;5074869;28;20035;-76
2023/06/05 02:09:32;;;;;;;97.28;92.93;;;10.20;99.90;;;;;;5085989;28;20040;-76
2023/06/05 02:12:03;;;;;;;101.57;97.13;;;10.20;99.90;;;;;;5073268;28;20036;-76
2023/06/05 02:14:32;;;;;;;104.18;99.78;;;10.20;99.90;;;;;;5074894;27;20501;-76
2023/06/05 02:16:58;;;;;;;107.30;102.60;;;10.20;99.90;;;;;;5071744;28;20038;-76
2023/06/05 02:19:24;;;;;;;109.13;104.47;;;10.20;99.90;;;;;;5092691;28;20044;-76
2023/06/05 02:21:53;;;;;;;113.43;108.38;;;10.20;99.90;;;;;;5091064;28;20474;-76
2023/06/05 02:24:18;;;;;;;110.93;106.22;;;10.30;99.90;;;;;;5091529;28;20425;-76
2023/06/05 02:26:44;;;;;;;108.18;103.47;;;10.40;99.90;;;;;;5073365;28;20058;-76
2023/06/05 02:29:10;;;;;;;114.13;109.22;;;10.30;99.90;;;;;;5064306;28;20474;-76
2023/06/05 02:31:36;;;;;;;106.65;102.10;;;10.40;99.90;;;;;;5070839;28;20091;-76
2023/06/05 02:34:02;;;;;;;112.18;107.40;;;10.40;99.90;;;;;;5053569;28;20399;-76
2023/06/05 02:36:32;;;;;;;107.43;102.63;;;10.40;99.90;;;;;;5071284;28;20047;-76
2023/06/05 02:38:59;;;;;;;109.97;105.13;;;10.40;99.90;;;;;;5048659;28;20040;-77
2023/06/05 02:41:26;;;;;;;111.25;106.22;;;10.40;99.90;;;;;;5054340;28;20048;-76
2023/06/05 02:43:54;;;;;;;108.32;103.53;;;10.50;99.90;;;;;;5070891;28;20555;-76
2023/06/05 02:46:30;;;;;;;108.65;103.75;;;10.50;99.90;;;;;;5051187;28;20040;-77
2023/06/05 02:48:55;;;;;;;99.28;94.85;;;10.50;99.90;;;;;;5072409;28;20046;-77
2023/06/05 02:51:21;;;;;;;97.10;92.70;;;10.50;99.90;;;;;;5065717;28;20563;-77
2023/06/05 02:53:46;;;;;;;95.03;90.63;;;10.50;99.90;;;;;;5046032;28;20040;-77
2023/06/05 02:56:13;;;;;;;92.28;88.07;;;10.50;99.90;;;;;;5043097;28;20070;-77
2023/06/05 02:58:43;;;;;;;87.25;83.43;;;10.50;99.90;;;;;;5066847;28;20045;-76
2023/06/05 03:01:10;;;;;;;87.93;83.78;;;10.50;99.90;;;;;;5070369;28;20063;-77
2023/06/05 03:03:36;;;;;;;86.00;82.00;;;10.50;99.90;;;;;;5055319;28;20127;-76
2023/06/05 03:06:06;;;;;;;84.55;80.78;;;10.60;99.90;;;;;;5065839;28;20036;-76
2023/06/05 03:08:36;;;;;;;85.35;81.53;;;10.60;99.90;;;;;;5068578;28;20097;-77
2023/06/05 03:11:03;;;;;;;79.03;75.25;;;10.60;99.90;;;;;;5054692;28;20044;-76
2023/06/05 03:13:29;;;;;;;77.63;74.20;;;10.60;99.90;;;;;;5052930;28;20036;-77
2023/06/05 03:16:00;;;;;;;78.20;74.65;;;10.70;99.90;;;;;;5068647;28;20031;-77
2023/06/05 03:18:27;;;;;;;74.80;71.30;;;10.70;99.90;;;;;;5053034;28;20890;-77
2023/06/05 03:20:56;;;;;;;77.10;73.43;;;10.70;99.90;;;;;;5053046;28;20044;-76
2023/06/05 03:23:27;;;;;;;74.57;71.07;;;10.70;99.90;;;;;;5040129;28;20082;-77
2023/06/05 03:25:54;;;;;;;72.85;69.35;;;10.80;99.90;;;;;;5050335;28;20040;-76
2023/06/05 03:28:21;;;;;;;75.82;72.38;;;10.80;99.90;;;;;;5054778;28;20116;-76
2023/06/05 03:30:47;;;;;;;75.35;71.88;;;10.90;99.90;;;;;;5067721;28;20499;-77
2023/06/05 03:33:14;;;;;;;74.03;70.28;;;10.90;99.90;;;;;;5089638;28;20036;-76
2023/06/05 03:35:42;;;;;;;71.13;67.80;;;10.90;99.90;;;;;;5077009;27;20121;-77
2023/06/05 03:38:08;;;;;;;70.38;66.90;;;10.90;99.90;;;;;;5065043;28;20391;-77
2023/06/05 03:40:34;;;;;;;72.63;69.30;;;10.90;99.90;;;;;;5072371;28;20040;-77
2023/06/05 03:43:00;;;;;;;73.72;70.32;;;11.00;99.90;;;;;;5088424;28;20521;-77
2023/06/05 03:45:28;;;;;;;75.05;71.57;;;11.00;99.90;;;;;;5062309;28;20044;-76
2023/06/05 03:47:54;;;;;;;72.93;69.65;;;11.00;99.90;;;;;;5055434;28;20043;-77
2023/06/05 03:50:20;;;;;;;71.10;67.63;;;11.00;99.90;;;;;;5088688;28;20518;-78
2023/06/05 03:52:53;;;;;;;68.82;65.60;;;11.10;99.90;;;;;;5076803;28;20047;-77
2023/06/05 03:55:20;;;;;;;67.60;64.32;;;11.10;99.90;;;;;;5083717;28;20434;-77
2023/06/05 03:57:47;;;;;;;65.32;62.28;;;11.10;99.90;;;;;;5082851;28;20107;-77
2023/06/05 04:00:14;;;;;;;64.20;61.25;;;11.20;99.90;;;;;;5088414;28;20043;-77
2023/06/05 04:02:40;;;;;;;63.70;60.58;;;11.20;99.90;;;;;;5080420;28;20100;-77
2023/06/05 04:05:11;;;;;;;63.92;60.90;;;11.20;99.90;;;;;;5071091;28;20048;-77
2023/06/05 04:07:37;;;;;;;62.65;59.45;;;11.30;99.90;;;;;;5072465;28;20093;-77
2023/06/05 04:10:03;;;;;;;60.92;57.97;;;11.40;99.90;;;;;;5072616;27;20431;-77
2023/06/05 04:12:28;;;;;;;58.20;55.42;;;11.40;99.90;;;;;;5078323;28;20473;-77
2023/06/05 04:14:54;;;;;;;61.72;58.63;;;11.40;99.90;;;;;;5088683;28;20502;-77
2023/06/05 04:17:20;;;;;;;57.50;54.70;;;11.40;99.90;;;;;;5072356;28;20568;-77
2023/06/05 04:19:45;;;;;;;57.28;54.28;;;11.50;99.90;;;;;;5066660;28;20620;-77
2023/06/05 04:22:11;;;;;;;53.40;50.72;;;11.50;99.90;;;;;;5089561;28;20085;-78
2023/06/05 04:24:39;;;;;;;52.25;49.65;;;11.60;99.90;;;;;;5082495;28;20043;-78
2023/06/05 04:27:04;;;;;;;46.72;44.38;;;11.60;99.90;;;;;;5068162;28;20430;-77
2023/06/05 04:29:32;;;;;;;47.08;44.60;;;11.60;99.90;;;;;;5082013;28;20054;-76
2023/06/05 04:31:57;;;;;;;47.58;45.20;;;11.70;99.90;;;;;;5076952;27;20121;-77
2023/06/05 04:34:24;;;;;;;44.80;42.35;;;11.70;99.90;;;;;;5092820;28;20123;-78
2023/06/05 04:36:51;;;;;;;43.80;41.60;;;11.70;99.90;;;;;;5061319;28;20039;-77
2023/06/05 04:39:18;;;;;;;38.33;36.38;;;11.80;99.90;;;;;;5065629;28;20044;-78
2023/06/05 04:41:46;;;;;;;35.67;33.88;;;11.90;99.90;;;;;;5064576;28;20047;-78
2023/06/05 04:44:16;;;;;;;35.65;33.85;;;11.90;99.90;;;;;;5081896;28;20103;-78
2023/06/05 04:46:45;;;;;;;36.22;34.47;;;11.90;99.90;;;;;;5079645;28;20550;-78
2023/06/05 04:49:12;;;;;;;38.72;36.65;;;12.00;99.90;;;;;;5082012;28;20047;-78
2023/06/05 04:51:39;;;;;;;39.67;37.67;;;12.10;99.90;;;;;;5072214;28;20419;-77
2023/06/05 04:54:05;;;;;;;41.00;38.90;;;12.10;99.90;;;;;;5071040;28;20158;-78
2023/06/05 04:56:34;;;;;;;40.45;38.45;;;12.20;99.90;;;;;;5072493;28;20130;-77
2023/06/05 04:59:02;;;;;;;40.00;38.10;;;12.20;99.90;;;;;;5070976;28;20047;-78
2023/06/05 05:01:28;;;;;;;40.92;38.92;;;12.30;99.90;;;;;;5086164;28;20054;-79
2023/06/05 05:03:54;;;;;;;39.58;37.67;;;12.30;99.90;;;;;;5064710;28;20381;-78
2023/06/05 05:06:20;;;;;;;36.85;34.95;;;12.40;99.90;;;;;;5085608;28;20404;-78
2023/06/05 05:08:50;;;;;;;35.22;33.60;;;12.40;99.90;;;;;;5092994;28;20085;-78
2023/06/05 05:11:17;;;;;;;35.15;33.45;;;12.40;99.90;;;;;;5090122;28;20046;-78
2023/06/05 05:13:43;;;;;;;39.58;37.67;;;12.40;99.90;;;;;;5092618;28;20036;-76
2023/06/05 05:16:10;;;;;;;40.35;38.35;;;12.50;99.90;;;;;;5089552;28;20036;-78
2023/06/05 05:18:40;;;;;;;40.65;38.67;;;12.50;99.90;;;;;;5071914;28;20068;-78
2023/06/05 05:21:06;;;;;;;40.88;38.72;;;12.60;99.90;;;;;;5091778;28;20070;-77
2023/06/05 05:23:33;;;;;;;36.65;34.85;;;12.60;99.90;;;;;;5089803;28;20495;-78
2023/06/05 05:25:59;;;;;;;35.60;33.58;;;12.70;99.90;;;;;;5078723;28;20035;-78
2023/06/05 05:28:25;;;;;;;36.70;34.95;;;12.80;99.90;;;;;;5093613;28;20095;-77
2023/06/05 05:30:52;;;;;;;31.55;29.95;;;12.80;99.90;;;;;;5093928;28;20051;-77
2023/06/05 05:33:17;;;;;;;29.27;27.83;;;12.90;99.90;;;;;;5066715;28;20040;-76
2023/06/05 05:35:44;;;;;;;34.38;32.63;;;12.90;99.90;;;;;;5093298;28;20036;-78
2023/06/05 05:38:10;;;;;;;33.28;31.48;;;13.00;99.90;;;;;;5094360;27;20155;-81
2023/06/05 05:40:36;;;;;;;35.58;33.78;;;12.90;99.90;;;;;;5073940;28;20048;-77
2023/06/05 05:43:01;;;;;;;36.38;34.60;;;13.00;99.90;;;;;;5093626;27;20066;-78
2023/06/05 05:45:27;;;;;;;37.67;35.65;;;13.00;99.90;;;;;;5076651;27;20154;-78
2023/06/05 05:47:53;;;;;;;38.17;36.28;;;13.10;99.90;;;;;;5106400;27;20039;-77
2023/06/05 05:50:18;;;;;;;35.83;34.13;;;13.20;99.90;;;;;;5075272;28;20051;-78
2023/06/05 05:52:44;;;;;;;34.92;33.10;;;13.30;99.90;;;;;;5097478;28;20043;-77
2023/06/05 05:55:10;;;;;;;33.70;32.00;;;13.30;99.90;;;;;;5077756;28;20040;-78
2023/06/05 05:57:37;;;;;;;35.05;33.25;;;13.30;99.90;;;;;;5088281;27;20081;-78
2023/06/05 06:00:09;;;;;;;36.75;34.95;;;13.30;99.90;;;;;;5092587;28;20111;-78
2023/06/05 06:02:35;;;;;;;34.50;32.80;;;13.30;99.90;;;;;;5090616;28;20044;-78
2023/06/05 06:05:04;;;;;;;34.35;32.45;;;13.40;99.90;;;;;;5087741;27;20041;-78
2023/06/05 06:07:30;;;;;;;33.95;32.20;;;13.50;99.90;;;;;;5085031;28;20082;-77
2023/06/05 06:09:56;;;;;;;31.95;30.35;;;13.60;99.90;;;;;;5069825;28;20410;-77
2023/06/05 06:12:22;;;;;;;30.73;29.02;;;13.70;99.90;;;;;;5069646;28;20039;-78
2023/06/05 06:14:48;;;;;;;26.95;25.45;;;13.80;99.90;;;;;;5058931;28;20036;-78
2023/06/05 06:17:14;;;;;;;24.85;23.45;;;13.80;99.90;;;;;;5067273;28;20441;-78
2023/06/05 06:19:40;;;;;;;23.85;22.55;;;13.80;99.90;;;;;;5075652;27;20048;-78
2023/06/05 06:22:11;;;;;;;25.35;24.05;;;13.80;99.90;;;;;;5062630;28;20586;-78
2023/06/05 06:24:41;;;;;;;25.23;23.90;;;13.90;99.90;;;;;;5086367;28;20146;-77
2023/06/05 06:27:10;;;;;;;25.15;23.75;;;14.10;99.90;;;;;;5080525;28;20102;-77
2023/06/05 06:29:47;;;;;;;25.33;23.73;;;14.10;99.90;;;;;;5073157;28;20063;-79
2023/06/05 06:32:13;;;;;;;24.88;23.48;;;14.20;99.90;;;;;;5100088;28;20131;-79
2023/06/05 06:34:38;;;;;;;24.83;23.50;;;14.20;99.90;;;;;;5080917;28;20677;-78
2023/06/05 06:37:04;;;;;;;24.17;22.67;;;14.30;99.90;;;;;;5068342;27;20435;-79
2023/06/05 06:39:31;;;;;;;23.83;22.52;;;14.40;99.90;;;;;;5084556;28;20043;-78
2023/06/05 06:41:57;;;;;;;24.13;22.63;;;14.50;99.90;;;;;;5075316;27;20072;-79
2023/06/05 06:44:23;;;;;;;23.73;22.23;;;14.80;99.90;;;;;;5077075;28;20570;-76
2023/06/05 06:46:48;;;;;;;23.30;22.00;;;15.00;99.90;;;;;;5092454;27;20442;-77
2023/06/05 06:49:14;;;;;;;24.05;22.60;;;15.20;99.90;;;;;;5064112;28;20061;-78
2023/06/05 06:51:40;;;;;;;51.65;49.22;;;15.20;99.90;;;;;;5089850;28;20039;-78
2023/06/05 06:54:06;;;;;;;34.55;32.78;;;15.20;99.90;;;;;;5073527;28;20519;-78
2023/06/05 06:56:31;;;;;;;37.78;35.92;;;15.20;99.90;;;;;;5086786;27;20057;-80
2023/06/05 06:58:57;;;;;;;28.45;26.85;;;15.80;99.90;;;;;;5081095;27;20517;-78
2023/06/05 07:01:24;;;;;;;40.17;38.22;;;15.80;99.90;;;;;;5090365;27;20662;-79
2023/06/05 07:03:50;;;;;;;39.17;37.20;;;15.90;99.90;;;;;;5073635;27;20039;-78
2023/06/05 07:06:16;;;;;;;56.28;53.58;;;15.90;99.90;;;;;;5076200;28;20057;-79
2023/06/05 07:08:41;;;;;;;55.45;52.88;;;15.80;99.90;;;;;;5063411;28;20122;-77
2023/06/05 07:11:07;;;;;;;69.13;66.00;;;15.70;99.90;;;;;;5080708;27;20390;-78
2023/06/05 07:13:33;;;;;;;74.65;71.35;;;15.60;99.90;;;;;;5083231;28;20043;-78
2023/06/05 07:15:58;;;;;;;80.82;77.43;;;15.50;99.90;;;;;;5081690;28;20514;-77
2023/06/05 07:18:24;;;;;;;91.88;87.93;;;15.30;99.90;;;;;;5079005;28;20070;-79
2023/06/05 07:20:49;;;;;;;90.78;86.88;;;15.20;99.90;;;;;;5088702;28;20071;-78
2023/06/05 07:23:17;;;;;;;74.15;70.95;;;15.80;99.90;;;;;;5069082;27;20034;-77
2023/06/05 07:25:43;;;;;;;90.90;87.03;;;16.60;99.90;;;;;;5064525;28;20035;-77
2023/06/05 07:28:11;;;;;;;83.07;79.57;;;17.50;99.90;;;;;;5084539;27;20035;-77
2023/06/05 07:30:37;;;;;;;84.40;80.75;;;17.40;99.90;;;;;;5063202;28;20066;-78
2023/06/05 07:33:03;;;;;;;76.00;72.60;;;18.00;99.90;;;;;;5081623;27;20380;-78
2023/06/05 07:35:29;;;;;;;87.07;83.28;;;18.50;99.90;;;;;;5067031;28;20088;-79
2023/06/05 07:37:55;;;;;;;57.15;54.47;;;19.10;99.90;;;;;;5086228;27;20048;-79
2023/06/05 07:40:21;;;;;;;65.88;62.97;;;19.40;99.90;;;;;;5084184;28;20449;-78
2023/06/05 07:42:46;;;;;;;88.43;84.65;;;19.50;99.90;;;;;;5077367;27;20571;-77
2023/06/05 07:45:12;;;;;;;58.53;55.92;;;19.70;99.90;;;;;;5069505;28;20404;-78
2023/06/05 07:47:38;;;;;;;68.53;65.53;;;20.00;99.90;;;;;;5085350;27;20089;-77
2023/06/05 07:50:06;;;;;;;47.08;44.90;;;20.10;99.90;;;;;;5057096;28;20047;-78
2023/06/05 07:52:32;;;;;;;73.18;70.00;;;20.40;98.80;;;;;;5083340;27;20070;-78
2023/06/05 07:54:58;;;;;;;68.90;65.65;;;20.30;98.90;;;;;;5070532;28;20117;-79
2023/06/05 07:57:29;;;;;;;46.08;43.83;;;20.50;98.80;;;;;;5063816;27;20547;-77
2023/06/05 07:59:56;;;;;;;37.78;35.80;;;20.60;98.80;;;;;;5069192;28;20040;-75
2023/06/05 08:02:23;;;;;;;32.70;30.92;;;20.60;98.30;;;;;;5084331;27;20120;-77
2023/06/05 08:04:48;;;;;;;51.08;48.67;;;20.10;98.40;;;;;;5104957;28;20035;-77
2023/06/05 08:07:14;;;;;;;32.83;31.13;;;19.90;99.40;;;;;;5081368;28;20786;-77
2023/06/05 08:09:40;;;;;;;47.85;45.58;;;19.80;98.70;;;;;;5074811;28;20439;-76
2023/06/05 08:12:06;;;;;;;32.78;31.08;;;19.70;98.50;;;;;;5068256;27;20296;-77
2023/06/05 08:14:33;;;;;;;20.13;18.73;;;19.20;98.70;;;;;;5074447;28;20087;-76
2023/06/05 08:16:59;;;;;;;35.22;33.50;;;18.50;99.40;;;;;;5077290;28;20032;-77
2023/06/05 08:19:25;;;;;;;42.63;40.63;;;18.50;99.90;;;;;;5080542;28;20041;-75
2023/06/05 08:21:53;;;;;;;41.03;38.95;;;18.20;99.90;;;;;;5065769;28;20134;-77
2023/06/05 08:24:20;;;;;;;46.05;43.85;;;18.60;99.90;;;;;;5081142;28;20031;-79
2023/06/05 08:26:45;;;;;;;50.78;48.17;;;19.30;99.90;;;;;;5063860;28;20092;-79
2023/06/05 08:29:12;;;;;;;24.23;22.77;;;20.10;99.90;;;;;;5079132;28;20759;-76
2023/06/05 08:31:38;;;;;;;14.82;13.82;;;20.70;99.00;;;;;;5078569;28;20047;-77
2023/06/05 08:34:05;;;;;;;14.82;13.82;;;20.90;97.80;;;;;;5082129;28;20408;-78
2023/06/05 08:36:32;;;;;;;16.10;15.00;;;20.50;97.90;;;;;;5075951;28;20044;-78
2023/06/05 08:38:59;;;;;;;12.55;11.63;;;20.70;98.80;;;;;;5078040;28;20058;-78
2023/06/05 08:41:25;;;;;;;23.60;22.10;;;21.20;98.10;;;;;;5079762;28;20047;-79
2023/06/05 08:43:51;;;;;;;38.30;36.45;;;21.10;96.00;;;;;;5080565;28;20518;-77
2023/06/05 08:46:17;;;;;;;27.50;26.05;;;21.30;97.60;;;;;;5070725;28;20049;-78
2023/06/05 08:48:50;;;;;;;59.63;56.88;;;21.50;98.20;;;;;;5069041;28;20043;-80
2023/06/05 08:51:17;;;;;;;52.78;50.30;;;21.50;96.70;;;;;;5083047;28;20043;-79
2023/06/05 08:54:02;;;;;;;67.07;64.05;;;21.00;93.90;;;;;;5084254;28;20032;-79
2023/06/05 08:56:28;;;;;;;61.78;58.97;;;20.30;96.20;;;;;;5075596;28;20078;-77
2023/06/05 08:58:56;;;;;;;25.38;23.88;;;19.70;97.00;;;;;;5058092;28;20097;-78
2023/06/05 09:01:21;;;;;;;16.38;15.27;;;19.50;98.10;;;;;;5055385;28;20055;-77
2023/06/05 09:03:47;;;;;;;46.42;44.17;;;19.80;98.80;;;;;;5078109;28;20157;-80
2023/06/05 09:06:12;;;;;;;43.38;41.13;;;20.30;96.90;;;;;;5070994;28;20048;-78
2023/06/05 09:08:38;;;;;;;21.15;19.73;;;20.30;96.50;;;;;;5089371;28;20047;-79
2023/06/05 09:11:25;;;;;;;47.97;45.75;;;20.60;97.20;;;;;;5085833;28;20048;-78
2023/06/05 09:13:51;;;;;;;22.05;20.75;;;20.90;97.00;;;;;;5080791;28;20507;-76
2023/06/05 09:16:37;;;;;;;51.22;48.83;;;21.00;96.90;;;;;;5088773;28;20032;-75
2023/06/05 09:19:04;;;;;;;21.98;20.67;;;20.80;96.10;;;;;;5077956;28;20747;-78
2023/06/05 09:21:31;;;;;;;40.60;38.35;;;20.80;97.60;;;;;;5087874;28;20038;-77
2023/06/05 09:24:16;;;;;;;62.58;59.83;;;20.90;96.70;;;;;;5087702;28;20518;-78
2023/06/05 09:27:08;;;;;;;49.17;46.65;;;21.00;95.50;;;;;;5073562;28;20047;-78
2023/06/05 09:29:38;;;;;;;77.03;73.60;;;20.80;95.50;;;;;;5082939;28;20151;-78
2023/06/05 09:32:19;;;;;;;65.75;62.75;;;20.80;96.10;;;;;;5078716;28;20135;-79
2023/06/05 09:34:45;;;;;;;89.40;85.55;;;20.90;95.70;;;;;;5089150;28;20127;-79
2023/06/05 09:37:12;;;;;;;82.07;78.60;;;20.80;94.80;;;;;;5075412;28;20119;-79
2023/06/05 09:39:46;;;;;;;74.47;71.20;;;20.70;94.40;;;;;;5071100;28;20145;-80
2023/06/05 09:42:12;;;;;;;71.53;68.37;;;20.70;95.70;;;;;;5070513;28;20039;-79
2023/06/05 09:44:37;;;;;;;78.90;75.43;;;20.80;95.40;;;;;;5080838;28;20035;-77
2023/06/05 09:47:05;;;;;;;63.08;60.28;;;20.90;95.10;;;;;;5077008;28;20032;-78
2023/06/05 09:49:52;;;;;;;71.97;68.75;;;20.90;96.20;;;;;;5087595;28;20051;-77
2023/06/05 09:52:18;;;;;;;69.78;66.60;;;21.10;96.40;;;;;;5069250;28;20044;-77
2023/06/05 09:54:45;;;;;;;83.30;79.68;;;21.10;96.30;;;;;;5085965;28;20051;-76
2023/06/05 09:57:13;;;;;;;51.90;49.28;;;21.10;95.70;;;;;;5066571;28;20078;-76
2023/06/05 09:59:53;;;;;;;51.28;48.88;;;21.00;96.20;;;;;;5086296;28;20075;-76
2023/06/05 10:02:22;;;;;;;55.88;53.22;;;20.70;96.50;;;;;;5090939;28;20039;-75
2023/06/05 10:04:51;;;;;;;54.08;51.50;;;20.30;97.00;;;;;;5091373;28;20035;-76
2023/06/05 10:07:18;;;;;;;69.60;66.43;;;20.40;97.10;;;;;;5084186;28;20046;-78
2023/06/05 10:09:44;;;;;;;69.32;66.00;;;20.40;96.30;;;;;;5078533;28;20047;-78
2023/06/05 10:12:10;;;;;;;47.17;44.88;;;20.40;95.90;;;;;;5091279;28;20044;-79
2023/06/05 10:14:40;;;;;;;49.95;47.58;;;20.40;97.50;;;;;;5075152;28;20093;-78
2023/06/05 10:17:05;;;;;;;58.38;55.63;;;20.50;96.50;;;;;;5088836;28;20100;-80
2023/06/05 10:19:32;;;;;;;118.85;113.47;;;20.50;96.60;;;;;;5082329;28;20045;-78
2023/06/05 10:21:58;;;;;;;110.28;105.32;;;20.70;96.20;;;;;;5089190;28;20403;-80
2023/06/05 10:24:41;;;;;;;132.45;126.72;;;20.60;95.90;;;;;;5086959;27;20036;-78
2023/06/05 10:27:10;;;;;;;101.22;96.70;;;20.50;95.60;;;;;;5096783;28;20043;-78
2023/06/05 10:30:25;;;;;;;101.60;97.10;;;20.50;96.50;;;;;;5079212;28;20083;-79
2023/06/05 10:33:12;;;;;;;109.30;104.47;;;20.70;96.70;;;;;;5049445;28;20113;-79
2023/06/05 10:35:54;;;;;;;113.90;109.05;;;20.80;95.50;;;;;;5057348;28;20444;-78
2023/06/05 10:38:21;;;;;;;115.85;110.78;;;21.00;95.30;;;;;;5064647;28;20048;-80
2023/06/05 10:40:53;;;;;;;111.47;106.65;;;20.80;94.10;;;;;;5079472;28;20044;-75
2023/06/05 10:43:32;;;;;;;113.70;108.72;;;20.50;95.70;;;;;;5065168;28;20032;-78
2023/06/05 10:46:22;;;;;;;98.63;94.32;;;20.60;95.20;;;;;;5073583;28;20155;-78
2023/06/05 10:49:11;;;;;;;86.25;82.00;;;20.70;95.30;;;;;;5054678;28;20032;-79
2023/06/05 10:51:44;;;;;;;99.32;95.05;;;20.80;95.70;;;;;;5063779;28;20036;-78
2023/06/05 10:54:34;;;;;;;91.85;87.82;;;20.90;94.80;;;;;;5048840;28;20040;-80
2023/06/05 10:57:02;;;;;;;53.92;51.45;;;21.10;95.10;;;;;;5025209;28;20051;-77
2023/06/05 10:59:28;;;;;;;69.30;66.20;;;21.10;94.70;;;;;;5045250;28;20568;-80
2023/06/05 11:02:06;;;;;;;62.53;59.67;;;21.10;94.10;;;;;;5065158;28;20040;-78
2023/06/05 11:04:47;;;;;;;65.45;62.58;;;21.00;93.70;;;;;;5056509;28;20408;-79
2023/06/05 11:07:23;;;;;;;69.75;66.60;;;21.00;94.80;;;;;;5062202;28;20087;-79
2023/06/05 11:10:15;;;;;;;67.88;64.63;;;21.20;95.00;;;;;;5063009;28;20503;-78
2023/06/05 11:12:41;;;;;;;48.47;46.22;;;21.30;94.90;;;;;;5064492;28;20048;-79
2023/06/05 11:15:14;;;;;;;34.10;32.40;;;21.40;96.00;;;;;;5067807;28;20042;-79
2023/06/05 11:17:47;;;;;;;104.82;100.32;;;21.50;94.00;;;;;;5049988;28;20032;-77
2023/06/05 11:20:26;;;;;;;101.50;97.10;;;21.50;94.20;;;;;;5050669;28;20090;-78
2023/06/05 11:22:57;;;;;;;87.20;83.38;;;21.30;94.70;;;;;;5047146;28;20546;-78
2023/06/05 11:25:41;;;;;;;94.05;90.05;;;21.30;94.70;;;;;;5067505;28;20069;-78
2023/06/05 11:28:08;;;;;;;100.70;96.40;;;21.30;95.20;;;;;;5058557;28;20036;-78
2023/06/05 11:30:45;;;;;;;80.22;76.78;;;21.30;95.20;;;;;;5051760;28;20094;-78
2023/06/05 11:33:16;;;;;;;90.00;86.07;;;21.50;95.00;;;;;;5069901;28;20055;-79
2023/06/05 11:35:44;;;;;;;179.98;172.18;;;21.60;95.20;;;;;;5078173;28;20118;-79
2023/06/05 11:38:11;;;;;;;177.80;170.07;;;21.50;94.80;;;;;;5056041;28;20126;-78
2023/06/05 11:40:38;;;;;;;22.67;21.33;;;21.60;93.90;;;;;;5036223;28;20454;-78
2023/06/05 11:43:12;;;;;;;191.13;182.82;;;21.70;94.00;;;;;;5063879;28;20048;-78
2023/06/05 11:45:39;;;;;;;181.18;173.23;;;21.80;94.40;;;;;;5062121;28;20055;-78
2023/06/05 11:48:10;;;;;;;41.05;38.88;;;21.70;94.10;;;;;;5053833;28;20044;-79
2023/06/05 11:50:38;;;;;;;15.40;14.30;;;21.70;94.10;;;;;;5071341;28;20047;-77
2023/06/05 11:53:04;;;;;;;103.32;98.60;;;21.80;93.40;;;;;;5066214;28;20082;-77
2023/06/05 11:55:43;;;;;;;211.57;202.40;;;21.70;94.40;;;;;;5047735;28;20036;-78
2023/06/05 11:58:10;;;;;;;94.00;89.75;;;21.80;94.30;;;;;;5052314;28;21601;-78
2023/06/05 12:00:36;;;;;;;40.13;37.97;;;21.90;94.00;;;;;;5054030;28;20569;-77
2023/06/05 12:03:02;;;;;;;33.00;31.30;;;21.80;93.20;;;;;;5068597;28;20126;-78
2023/06/05 12:05:28;;;;;;;131.30;125.53;;;21.90;93.40;;;;;;5044569;28;20568;-77
2023/06/05 12:07:55;;;;;;;18.95;17.80;;;21.80;94.20;;;;;;5069497;28;20040;-78
2023/06/05 12:10:34;;;;;;;73.47;70.03;;;22.10;93.40;;;;;;5052066;28;20043;-77
2023/06/05 12:13:00;;;;;;;88.88;83.10;;;22.10;93.80;;;;;;5079005;28;20040;-78
2023/06/05 12:15:26;;;;;;;13.02;12.10;;;22.10;92.70;;;;;;5064386;28;20094;-78
2023/06/05 12:17:53;;;;;;;8.80;8.02;;;21.90;94.00;;;;;;5067942;28;20567;-78
2023/06/05 12:20:20;;;;;;;25.17;23.80;;;21.90;92.70;;;;;;5069521;28;20075;-78
2023/06/05 12:22:46;;;;;;;8.23;7.53;;;21.90;94.50;;;;;;5052631;28;20044;-77
2023/06/05 12:25:19;;;;;;;9.10;8.30;;;22.00;93.70;;;;;;5064561;28;20048;-77
2023/06/05 12:27:45;;;;;;;8.50;7.70;;;22.00;94.10;;;;;;5069011;28;20058;-78
2023/06/05 12:30:12;;;;;;;12.63;11.73;;;22.10;93.50;;;;;;5060673;28;20388;-78